Aviation Digital Data Service (ADDS)

Output produced by METARs form (1858 UTC 18 June 2019)
found at http://www.aviationweather.gov/metar/data/
 
YPAD 181830Z 04004KT CAVOK 07/05 Q1026 NOSIG
TAF YPAD 181717Z 1818/1924 VRB05KT 9999 FEW040 
     FM182200 03007KT CAVOK 
     FM190200 33008KT 9999 FEW040 
     FM190900 04005KT 9999 SCT040
       
YABA 181800Z AUTO 29007KT 9999 // SCT066 BKN082 09/07 Q1024
YMAY 181830Z AUTO 00000KT 0500 // BKN001 01/00 Q1022
YBAS 181830Z AUTO 33004KT 9999 // NCD 05/00 Q1024 RF00.0/000.0
TAF YBAS 181703Z 1818/1918 30005KT CAVOK 
     FM182000 30005KT 9999 BKN025 
     FM190000 11011KT 9999 SCT035 
     FM190400 12008KT CAVOK
       
YAMB 181842Z AUTO 00000KT 9999 // NCD 05/04 Q1016
TAF YAMB 181622Z 1818/1912 33003KT 9999 MIFG NSC 
     FM182200 26003KT 9999 NSW FEW045 
     FM190500 13004KT 9999 FEW035
       
YARG 181800Z AUTO 01002KT 9999 // NCD 21/04 Q1017
YMAV 181830Z AUTO 29009KT 9999 // NCD 05/04 Q1023 RF00.0/003.2 PRESENT WEATHER SENSOR US
TAF YMAV 181706Z 1818/1918 27010KT 9999 SCT040 
     FM190300 23010KT 9999 SCT040 
     FM190900 27008KT 9999 BKN040
       
YAYE 181800Z AUTO 12006KT 9999 // NCD 06/01 Q1023
YBNA 181800Z AUTO 00000KT 1500 // SCT001 10/10 Q1016
YBWX 181800Z AUTO 26004KT //// // ////// 16/11 Q1014
YBDV 181800Z AUTO 20006KT //// // ////// 08/03 Q1023
YBBN 181830Z 21006KT CAVOK 10/06 Q1016
TAF YBBN 181702Z 1818/1924 24005KT CAVOK 
     FM190000 22010KT CAVOK 
     FM190400 15008KT 9999 FEW035 
     FM191400 19009KT 9999 FEW040
       
YBHI 181800Z AUTO 22003KT 9999 // NCD 03/00 Q1025
YBRM 181830Z AUTO 00000KT 9999 // NCD 17/16 Q1013 RF00.0/000.0
TAF YBRM 181659Z 1818/1918 VRB03KT CAVOK 
     FM190000 03006KT CAVOK 
     FM190300 28008KT CAVOK 
     FM191300 VRB03KT CAVOK
       
YBUD 181800Z AUTO 25006KT 9999 // NCD 09/05 Q1017
YBCS 181830Z AUTO 29001KT 9999 // SCT048 19/17 Q1015 RMK RF00.0/000.0 NOSIG
TAF YBCS 181710Z 1818/1918 14010KT 9999 FEW028
       
YSCB 181830Z AUTO 17001KT 9999 // NCD M01/M02 Q1020 RF00.0/000.2
TAF YSCB 181703Z 1818/1918 24004KT CAVOK 
     BECMG 1900/1902 25009KT CAVOK 
     FM190700 20005KT CAVOK 
     FM190900 16004KT CAVOK 
     TEMPO 1818/1824 9999 BKN010 
     PROB30 1818/1822 0200 FG BKN002 
     PROB30 1916/1918 0200 FZFG BKN002
       
YCAR 181800Z AUTO 12006KT 9999 // NCD 10/05 Q1017
YCAS 181800Z AUTO 29004KT //// // ////// 09/08 Q1016
YCDU 181800Z AUTO 14005KT 9999 // OVC050 07/06 Q1026
YBCV 181800Z AUTO 00000KT 9999 // NCD 02/M01 Q1021
YCCY 181800Z AUTO 20007KT 9999 // NCD 10/M00 Q1019
YCBA 181800Z AUTO 33003KT 9999 // NCD 02/01 Q1023
YCBP 181800Z AUTO 13008KT 9999 // OVC046 07/01 Q1026
YBCG 181830Z AUTO 00000KT 9999 // NCD 11/11 Q1016 RF00.0/000.0
TAF YBCG 181702Z 1818/1918 22005KT 9999 FEW045 
     FM190200 18012KT 9999 SCT035 
     FM191200 19008KT 9999 SCT055
       
YCOM 181800Z AUTO 22004KT 9999 // NCD M02/M03 Q1019
YCBB 181800Z AUTO 21006KT 9999 // NCD 05/02 Q1020
YCNM 181800Z AUTO 20007KT //// // ////// 08/02 Q1021
YCIN 181830Z AUTO 20006KT 9999 // SCT094 21/08 Q1012 RF00.0/000.0
TAF YCIN 181251Z 1814/1902 VRB05KT CAVOK 
     FM190100 33006KT CAVOK
       
YPDN 181830Z AUTO 12006KT 9999 // NCD 21/06 Q1014
TAF YPDN 181704Z 1818/1924 13005KT CAVOK 
     FM190000 12013KT CAVOK 
     FM190800 01008KT CAVOK 
     FM191200 20005KT CAVOK 
     FM191500 13005KT CAVOK
       
YDBY 181800Z AUTO 15005KT 9999 // NCD 20/11 Q1013
YSDU 181830Z AUTO 02003KT 9999 // NCD 00/M01 Q1021 RF00.0/000.0
TAF YSDU 181645Z 1818/1912 20007KT 9999 SCT010 SCT020 
     BECMG 1900/1901 20012KT CAVOK 
     FM190800 18006KT CAVOK 
     TEMPO 1818/1823 BKN010 
     PROB30 1818/1820 0500 FG BKN001
       
YEML 181800Z AUTO 16003KT 9999 // NCD 09/03 Q1019
YESP 181800Z AUTO 36009KT 9999 // NCD 05/02 Q1025
YFRT 181830Z AUTO 10006KT 9999 // NCD 05/03 Q1025 RF00.0/000.0
TAF YFRT 181252Z 1814/1902 08005KT CAVOK
       
YGEL 181830Z AUTO 10013KT 9999 // NCD 11/05 Q1021 RF00.0/000.0
TAF YGEL 181612Z 1818/1912 11008KT CAVOK 
     FM190100 08016G26KT CAVOK 
     FM190400 05012KT CAVOK 
     FM190900 12008KT CAVOK
       
YGLA 181830Z AUTO 21006KT 9999 // NCD 11/05 Q1017 RF00.0/000.0
TAF YGLA 181624Z 1818/1906 22005KT CAVOK 
     FM190400 05009KT CAVOK
       
YPGV 181830Z AUTO 16009KT 9999 // NCD 23/17 Q1013 RF00.0/000.0
TAF YPGV 181306Z 1814/1902 14008KT 9999 FEW025 
     FM182300 14013KT 9999 SCT030
       
YGFN 181818Z AUTO 20003KT 9999 // NCD 09/09 Q1017
YGTH 181835Z AUTO 00000KT 0900 // SCT001 M00/M00 Q1024
YGTE 181800Z AUTO 15002KT 9999 // OVC084 16/14 Q1014
YBHM 181830Z AUTO 18013KT 9999 // NCD 18/10 Q1016 RF00.0/000.0
TAF YBHM 181619Z 1818/1906 17014KT CAVOK 
     FM182200 16018KT CAVOK
       
YMHB 181830Z 24010KT 9999 FEW035 SCT053 BKN270 08/00 Q1017 RF00.0/007.2
TAF YMHB 181708Z 1818/1918 23015G25KT 9999 -SHRA SCT035 
     FM182100 23010KT 9999 NSW SCT015 
     FM190300 22010KT 9999 -SHRA BKN015 
     FM191500 27010KT 9999 NSW SCT025 RMK 
     FM181800 MOD TURB BLW 5000FT TL190100 T 07 07 08 09 Q 1016 1018 1020 1021
       
YHID 181830Z AUTO 12012KT 9999 // SCT022 25/21 Q1012
TAF YHID 181709Z 1818/1918 12010KT 9999 FEW020 
     FM190000 09012KT 9999 FEW025 
     FM190800 12010KT 9999 -SHRA SCT020
       
YHUG 181800Z AUTO 00000KT 9999 // NCD 05/02 Q1019
YPKG 181830Z AUTO 01002KT 9999 // NCD 06/01 Q1025 RF00.0/000.0
TAF YPKG 181701Z 1818/1918 06006KT CAVOK
       
YKRY 181803Z AUTO 30003KT 9999 // NCD 01/01 Q1018
YPKU 181830Z AUTO 00000KT 9999 // NCD 17/07 Q1015 RF00.0/000.0
TAF YPKU 181237Z 1814/1902 10007KT CAVOK 
     FM190100 09012KT CAVOK
       
YMLT 181830Z AUTO 18009KT 9999 // NCD 06/01 Q1017 RF00.0/007.0
TAF YMLT 181710Z 1818/1918 17010KT 9999 FEW030 
     FM190000 20010KT 9999 SCT040 RMK 
     FM181800 MOD TURB BLW 5000FT TL190200 T 05 02 05 08 Q 1017 1019 1021 1021
       
YPLM 181830Z AUTO 25009KT 9999 // NCD 13/06 Q1016 RF00.0/000.0
TAF YPLM 181659Z 1818/1918 16007KT CAVOK 
     FM190200 07008KT CAVOK 
     FM191000 26007KT CAVOK
       
YLEC 181800Z AUTO 15004KT //// // ////// 05/01 Q1025
YLIS 181830Z AUTO 32003KT 0200 // OVC001 08/08 Q1016
YLRE 181800Z AUTO 13007KT 9999 // NCD 07/00 Q1020
YBMK 181800Z AUTO 24006KT 9999 // NCD 08/07 Q1017
YMEK 181800Z AUTO 11008KT 9999 // NCD 10/02 Q1020
YMEN 181800Z AUTO 29007KT 9999 // NCD 05/04 Q1023
YMML 181830Z 27010KT 9999 SCT040 05/03 Q1023 NOSIG
TAF YMML 181706Z 1818/1924 27010KT 9999 SCT040 
     FM190200 22010KT 9999 SCT040 
     FM190800 28008KT 9999 SCT035
       
YMER 181800Z AUTO 28006KT 9999 // NCD 05/03 Q1019
YMIA 181800Z AUTO 22005KT 9999 // NCD 03/02 Q1026
YMOR 181800Z AUTO 23006KT 9999 // NCD 04/00 Q1019
YMTG 181800Z AUTO 00000KT 9999 // SCT042 BKN057 04/03 Q1025
YBMA 181830Z AUTO 00000KT 9999 // NCD 08/01 Q1020 RF00.0/000.0
TAF YBMA 181707Z 1818/1906 14012KT CAVOK
       
YMDG 181800Z AUTO 00000KT 9999 // NCD M01/M02 Q1020
YNBR 181800Z AUTO 17006KT 9999 // NCD 05/01 Q1020
YNAR 181800Z AUTO 22004KT 9999 // NCD 03/03 Q1023
YNWN 181800Z AUTO 12007KT 9999 // NCD 14/03 Q1018
YNTN 181800Z AUTO 17013KT 9999 // NCD 18/M00 Q1016
YSNW 181800Z AUTO 28005KT 9999 // NCD 06/05 Q1019
YBOK 181800Z AUTO 08004KT 9999 // NCD 00/M01 Q1018
YOLD 181800Z AUTO 19004KT 9999 // NCD 03/02 Q1026
YPBO 181800Z AUTO 05006KT 9999 // NCD 12/00 Q1016
YPEA 181830Z AUTO 18004KT 9999 // NCD 05/03 Q1024
TAF YPEA 181614Z 1818/1912 07007KT CAVOK
       
YPPH 181830Z 09004KT CAVOK 03/03 Q1025 NOSIG
TAF YPPH 181701Z 1818/1924 07008KT CAVOK
       
YPJT 181830Z AUTO 14004KT 9999 // NCD 03/03 Q1025 RF00.0/000.0
TAF YPJT 181614Z 1818/1912 08007KT CAVOK
       
YPPD 181830Z AUTO 18005KT 9999 // NCD 13/09 Q1014 RF00.0/000.0
TAF YPPD 181659Z 1818/1918 14010KT CAVOK 
     FM190400 02009KT CAVOK 
     FM190700 31008KT CAVOK 
     FM191200 VRB03KT CAVOK
       
YBPN 181800Z AUTO 04001KT 9999 // NCD 08/08 Q1017
YSRI 181847Z AUTO 36003KT 9000 // NCD 04/04 Q1019 RF00/0/001/0
TAF AMD YSRI 181710Z 1818/1918 VRB03KT 0200 FG BKN001 
     BECMG 1821/1823 VRB03KT 9999 FEW020 
     FM190100 19010KT 9999 FEW040 
     FM190900 25003KT 9999 SCT045 
     PROB30 1823/1824 0500 FG
       
YRMD 181800Z AUTO 13010KT 9999 // NCD 09/02 Q1018
YBRK 181830Z AUTO 00000KT 9999 // NCD 08/04 Q1018 RF00.0/000.0
TAF YBRK 181717Z 1818/1918 VRB05KT CAVOK 
     FM190000 18008KT CAVOK 
     FM190800 VRB05KT CAVOK
       
YSSY 181830Z 28013KT CAVOK 10/05 Q1018 NOSIG
TAF YSSY 181728Z 1818/1924 25012KT CAVOK 
     FM190000 19018KT CAVOK 
     FM190900 23010KT 9999 FEW035
       
YSTW 181847Z AUTO 00000KT 0100 // BKN001 03/03 Q1020 RF00.0/000.0
TAF AMD YSTW 181857Z 1819/1912 VRB03KT 9999 BKN050 
     FM190200 20007KT CAVOK 
     BECMG 1909/1911 12006KT CAVOK 
     PROB30 1819/1823 0100 FG BKN001
       
YTRE 181800Z AUTO 22006KT 9999 // NCD 10/10 Q1018
TAF YTRE 181305Z 1814/1902 26005KT 9999 FEW040 
     BECMG 1900/1902 20012KT 9999 SCT040
       
YTEF 181800Z AUTO 14013KT 9999 // NCD 18/03 Q1015
YTNK 181800Z AUTO 12012KT 9999 // NCD 13/01 Q1020
TAF YTNK 181307Z 1814/1902 13012KT CAVOK 
     FM182300 11017KT CAVOK
       
YPTN 181830Z AUTO 14007KT 9999 // NCD 11/03 Q1016
TAF YPTN 181704Z 1818/1918 14006KT CAVOK 
     FM190000 12013KT CAVOK 
     FM190900 13005KT CAVOK
       
YBTL 181830Z AUTO 22001KT 9999 // NCD 15/15 Q1016
TAF YBTL 181707Z 1818/1918 VRB05KT 9999 FEW020 
     FM182100 20008KT CAVOK 
     FM190300 06012KT CAVOK 
     FM190800 12007KT 9999 FEW022
       
YSWG 181800Z AUTO 15005KT 080V220 9999 // NCD 03/02 Q1021
YWGT 181830Z AUTO 10004KT 6000 // NCD 00/00 Q1023
TAF AMD YWGT 180732Z 1807/1814 24010KT 9999 -SHRA SCT015 SCT025 
     FM181000 24008KT 9999 SCT020 INTER 1807/1810 4000 SHRA BKN008
       
YBWP 181800Z AUTO 00000KT 9999 // SCT083 19/17 Q1013
YWHA 181800Z AUTO 32006KT 9999 // BKN053 03/03 Q1026
YWLM 181830Z AUTO 29010KT 9999 // NCD 09/07 Q1019
TAF YWLM 181711Z 1818/1918 29007KT 9999 FEW050 
     BECMG 1823/1901 20015KT 9999 SCT025 
     FM190900 24005KT 9999 FEW030
       
YPWR 181830Z AUTO 12005KT 9999 // OVC050 06/04 Q1026 RF00.0/000.0
TAF YPWR 181704Z 1818/1912 VRB05KT CAVOK